createdAt,value
2022-12-11T00:02:12.221Z,22.79
2022-12-11T00:04:43.718Z,22.91
2022-12-11T00:07:14.721Z,22.60
2022-12-11T00:09:46.063Z,22.68
2022-12-11T00:12:16.961Z,22.89
2022-12-11T00:14:48.769Z,23.07
2022-12-11T00:17:19.849Z,22.88
2022-12-11T00:19:50.901Z,23.07
2022-12-11T00:22:22.310Z,23.04
2022-12-11T00:24:54.094Z,22.80
2022-12-11T00:27:25.827Z,22.81
2022-12-11T00:29:56.133Z,22.75
2022-12-11T00:32:28.451Z,22.92
2022-12-11T00:34:59.874Z,22.75
2022-12-11T00:37:31.038Z,22.75
2022-12-11T00:40:01.951Z,22.54
2022-12-11T00:42:33.266Z,22.53
2022-12-11T00:45:04.553Z,22.54
2022-12-11T00:47:37.250Z,22.53
2022-12-11T00:50:09.029Z,22.68
2022-12-11T00:52:40.539Z,22.72
2022-12-11T00:55:11.703Z,22.46
2022-12-11T00:57:43.111Z,22.59
2022-12-11T01:00:14.725Z,22.61
2022-12-11T01:02:45.406Z,22.68
2022-12-11T01:05:16.511Z,22.51
2022-12-11T01:07:47.216Z,22.62
2022-12-11T01:10:27.821Z,22.57
2022-12-11T01:13:00.492Z,22.08
2022-12-11T01:15:37.428Z,22.32
2022-12-11T01:18:12.487Z,22.38
2022-12-11T01:20:44.971Z,22.25
2022-12-11T01:23:16.206Z,21.91
2022-12-11T01:25:47.171Z,21.65
2022-12-11T01:28:17.972Z,21.77
2022-12-11T01:30:48.699Z,21.82
2022-12-11T01:33:19.563Z,21.75
2022-12-11T01:35:50.540Z,21.32
2022-12-11T01:38:21.334Z,21.40
2022-12-11T01:40:53.803Z,21.33
2022-12-11T01:43:24.994Z,21.47
2022-12-11T01:45:56.109Z,21.27
2022-12-11T01:48:31.062Z,21.30
2022-12-11T01:51:07.039Z,21.32
2022-12-11T01:53:43.011Z,21.38
2022-12-11T01:56:14.056Z,21.13
2022-12-11T01:58:50.210Z,21.17
2022-12-11T02:01:48.665Z,21.29
2022-12-11T02:04:20.928Z,21.42
2022-12-11T02:06:53.568Z,21.31
2022-12-11T02:09:31.366Z,21.52
2022-12-11T02:12:17.820Z,21.70
2022-12-11T02:15:26.045Z,21.71
2022-12-11T02:18:19.129Z,21.72
2022-12-11T02:21:00.787Z,21.78
2022-12-11T02:24:30.319Z,21.75
2022-12-11T02:27:16.770Z,21.70
2022-12-11T02:30:13.546Z,21.83
2022-12-11T02:32:52.306Z,21.96
2022-12-11T02:35:49.315Z,21.79
2022-12-11T02:38:37.600Z,21.86
2022-12-11T02:41:09.888Z,21.59
2022-12-11T02:43:42.104Z,21.45
2022-12-11T02:46:14.014Z,21.52
2022-12-11T02:48:45.695Z,21.66
2022-12-11T02:51:16.502Z,21.28
2022-12-11T02:53:47.993Z,21.52
2022-12-11T02:56:20.269Z,21.56
2022-12-11T02:58:58.660Z,21.55
2022-12-11T03:01:31.085Z,21.77
2022-12-11T03:04:02.056Z,21.78
2022-12-11T03:06:40.226Z,21.84
2022-12-11T03:09:16.073Z,21.81
2022-12-11T03:11:47.564Z,21.74
2022-12-11T03:14:20.831Z,21.88
2022-12-11T03:17:02.610Z,21.94
2022-12-11T03:19:39.978Z,22.02
2022-12-11T03:22:48.632Z,22.32
2022-12-11T03:25:38.022Z,22.38
2022-12-11T03:28:14.841Z,22.63
2022-12-11T03:30:46.513Z,22.46
2022-12-11T03:33:33.537Z,22.80
2022-12-11T03:36:17.998Z,22.63
2022-12-11T03:38:53.401Z,22.67
2022-12-11T03:41:26.721Z,22.61
2022-12-11T03:44:00.352Z,22.61
2022-12-11T03:46:35.324Z,23.17
2022-12-11T03:49:18.099Z,23.12
2022-12-11T03:51:50.653Z,23.26
2022-12-11T03:54:21.844Z,23.25
2022-12-11T03:56:56.070Z,22.83
2022-12-11T03:59:27.122Z,22.61
2022-12-11T04:01:58.214Z,22.45
2022-12-11T04:04:29.189Z,21.96
2022-12-11T04:07:00.465Z,22.03
2022-12-11T04:09:31.566Z,22.12
2022-12-11T04:12:02.858Z,22.32
2022-12-11T04:14:51.775Z,22.14
2022-12-11T04:17:41.190Z,22.16
2022-12-11T04:20:32.283Z,22.13
2022-12-11T04:23:23.784Z,22.20
2022-12-11T04:25:54.552Z,22.18
2022-12-11T04:28:25.609Z,22.01
2022-12-11T04:30:56.599Z,21.91
2022-12-11T04:33:27.665Z,21.97
2022-12-11T04:36:02.528Z,22.01
2022-12-11T04:38:33.750Z,21.93
2022-12-11T04:41:13.077Z,22.01
2022-12-11T04:43:46.632Z,21.89
2022-12-11T04:46:23.276Z,21.67
2022-12-11T04:48:57.546Z,21.78
2022-12-11T04:51:29.518Z,21.59
2022-12-11T04:54:01.142Z,21.57
2022-12-11T04:56:31.385Z,21.59
2022-12-11T04:59:03.622Z,21.58
2022-12-11T05:01:34.727Z,21.41
2022-12-11T05:04:06.063Z,21.36
2022-12-11T05:06:36.922Z,21.26
2022-12-11T05:09:08.493Z,21.36
2022-12-11T05:11:39.439Z,21.23
2022-12-11T05:14:10.697Z,21.06
2022-12-11T05:16:41.388Z,20.99
2022-12-11T05:19:13.240Z,20.71
2022-12-11T05:21:44.929Z,20.61
2022-12-11T05:24:16.232Z,20.55
2022-12-11T05:26:46.935Z,20.43
2022-12-11T05:29:17.952Z,20.42
2022-12-11T05:31:48.868Z,20.24
2022-12-11T05:34:19.996Z,20.16
2022-12-11T05:36:51.004Z,20.30
2022-12-11T05:39:22.060Z,20.12
2022-12-11T05:41:53.131Z,20.06
2022-12-11T05:44:24.572Z,20.05
2022-12-11T05:46:56.544Z,19.88
2022-12-11T05:49:31.014Z,19.86
2022-12-11T05:52:02.157Z,19.90
2022-12-11T05:54:33.250Z,19.94
2022-12-11T05:57:04.122Z,19.91
2022-12-11T05:59:35.160Z,20.01
2022-12-11T06:02:06.400Z,20.00
2022-12-11T06:04:37.721Z,20.13
2022-12-11T06:07:08.461Z,20.25
2022-12-11T06:09:39.439Z,20.30
2022-12-11T06:12:10.605Z,20.29
2022-12-11T06:14:42.370Z,20.24
2022-12-11T06:17:12.571Z,20.38
2022-12-11T06:19:43.434Z,20.42
2022-12-11T06:22:14.544Z,20.48
2022-12-11T06:24:45.412Z,20.51
2022-12-11T06:27:16.437Z,20.69
2022-12-11T06:29:48.216Z,20.66
2022-12-11T06:32:19.317Z,20.72
2022-12-11T06:34:50.363Z,20.81
2022-12-11T06:37:21.569Z,20.72
2022-12-11T06:39:52.904Z,20.64
2022-12-11T06:42:24.083Z,20.44
2022-12-11T06:44:54.932Z,20.43
2022-12-11T06:47:25.837Z,20.42
2022-12-11T06:49:57.310Z,20.19
2022-12-11T06:52:31.579Z,20.06
2022-12-11T06:55:02.679Z,19.93
2022-12-11T06:57:34.127Z,19.80
2022-12-11T07:00:05.912Z,19.92
2022-12-11T07:02:36.888Z,20.08
2022-12-11T07:05:09.132Z,20.01
2022-12-11T07:07:40.484Z,19.92
2022-12-11T07:10:12.213Z,20.00
2022-12-11T07:12:43.050Z,19.86
2022-12-11T07:15:14.375Z,19.96
2022-12-11T07:17:45.286Z,19.91
2022-12-11T07:20:17.170Z,19.84
2022-12-11T07:22:48.806Z,19.85
2022-12-11T07:25:19.963Z,19.85
2022-12-11T07:27:50.912Z,19.86
2022-12-11T07:30:22.021Z,19.69
2022-12-11T07:32:52.842Z,19.79
2022-12-11T07:35:23.905Z,19.63
2022-12-11T07:37:54.962Z,19.81
2022-12-11T07:40:25.960Z,20.09
2022-12-11T07:42:56.941Z,20.02
2022-12-11T07:45:28.537Z,20.11
2022-12-11T07:48:00.528Z,20.12
2022-12-11T07:50:35.133Z,20.06
2022-12-11T07:53:09.517Z,20.00
2022-12-11T07:55:40.296Z,19.98
2022-12-11T07:58:11.418Z,20.00
2022-12-11T08:00:42.434Z,19.79
2022-12-11T08:03:13.560Z,19.91
2022-12-11T08:05:52.596Z,19.82
2022-12-11T08:08:23.728Z,19.80
2022-12-11T08:10:55.065Z,19.85
2022-12-11T08:13:26.251Z,19.91
2022-12-11T08:15:58.004Z,19.83
2022-12-11T08:18:29.228Z,19.64
2022-12-11T08:21:00.095Z,19.70
2022-12-11T08:23:32.021Z,19.80
2022-12-11T08:26:05.809Z,19.75
2022-12-11T08:28:37.056Z,19.56
2022-12-11T08:31:12.055Z,19.62
2022-12-11T08:33:44.389Z,19.76
2022-12-11T08:36:18.624Z,19.69
2022-12-11T08:38:49.750Z,19.60
2022-12-11T08:41:27.425Z,19.63
2022-12-11T08:44:00.302Z,19.46
2022-12-11T08:46:33.949Z,19.50
2022-12-11T08:49:05.036Z,19.59
2022-12-11T08:51:36.317Z,19.54
2022-12-11T08:54:07.561Z,19.51
2022-12-11T08:56:38.410Z,19.40
2022-12-11T08:59:09.693Z,19.39
2022-12-11T09:01:40.969Z,19.35
2022-12-11T09:04:11.966Z,19.48
2022-12-11T09:06:43.198Z,19.38
2022-12-11T09:09:14.432Z,19.41
2022-12-11T09:11:45.159Z,19.48
2022-12-11T09:14:17.488Z,19.41
2022-12-11T09:16:48.739Z,19.46
2022-12-11T09:19:19.776Z,19.38
2022-12-11T09:21:51.299Z,19.38
2022-12-11T09:24:42.863Z,19.27
2022-12-11T09:27:15.216Z,19.18
2022-12-11T09:29:46.184Z,19.13
2022-12-11T09:32:16.952Z,19.24
2022-12-11T09:34:48.258Z,19.15
2022-12-11T09:37:19.419Z,18.97
2022-12-11T09:39:50.860Z,18.98
2022-12-11T09:42:33.801Z,18.97
2022-12-11T09:45:08.690Z,18.88
2022-12-11T09:47:44.795Z,18.95
2022-12-11T09:50:25.575Z,18.83
2022-12-11T09:53:06.476Z,18.67
2022-12-11T09:55:52.384Z,18.73
2022-12-11T09:58:41.667Z,18.70
2022-12-11T10:01:19.529Z,18.64
2022-12-11T10:04:19.513Z,18.64
2022-12-11T10:07:26.879Z,18.54
2022-12-11T10:10:05.777Z,18.44
2022-12-11T10:13:01.042Z,18.48
2022-12-11T10:15:54.438Z,18.54
2022-12-11T10:18:28.024Z,18.64
2022-12-11T10:20:59.664Z,18.50
2022-12-11T10:23:38.530Z,18.59
2022-12-11T10:26:20.301Z,18.38
2022-12-11T10:28:51.607Z,18.46
2022-12-11T10:31:23.613Z,18.52
2022-12-11T10:34:10.233Z,18.46
2022-12-11T10:36:43.496Z,18.39
2022-12-11T10:39:20.586Z,18.40
2022-12-11T10:41:53.510Z,18.40
2022-12-11T10:44:32.655Z,18.39
2022-12-11T10:47:11.503Z,18.35
2022-12-11T10:49:56.907Z,18.33
2022-12-11T10:52:30.810Z,18.21
2022-12-11T10:55:08.337Z,18.21
2022-12-11T10:57:41.307Z,18.15
2022-12-11T11:00:38.931Z,18.17
2022-12-11T11:03:27.972Z,18.29
2022-12-11T11:06:16.598Z,18.19
2022-12-11T11:08:50.380Z,18.26
2022-12-11T11:11:28.419Z,18.20
2022-12-11T11:14:19.597Z,18.03
2022-12-11T11:16:52.380Z,17.89
2022-12-11T11:19:26.074Z,17.93
2022-12-11T11:22:18.030Z,17.90
2022-12-11T11:24:59.819Z,17.90
2022-12-11T11:27:42.527Z,17.89
2022-12-11T11:30:34.418Z,17.85
2022-12-11T11:33:15.863Z,17.83
2022-12-11T11:35:59.935Z,17.78
2022-12-11T11:38:41.627Z,17.78
2022-12-11T11:41:39.980Z,17.81
2022-12-11T11:44:15.260Z,17.63
2022-12-11T11:47:12.260Z,17.57
2022-12-11T11:49:48.316Z,17.67
2022-12-11T11:52:31.576Z,17.58
2022-12-11T11:55:22.717Z,17.62
2022-12-11T11:58:04.340Z,17.50
2022-12-11T12:00:35.260Z,17.52
2022-12-11T12:03:15.074Z,17.65
2022-12-11T12:06:05.117Z,17.64
2022-12-11T12:08:53.954Z,17.56
2022-12-11T12:11:24.927Z,17.53
2022-12-11T12:13:55.844Z,17.44
2022-12-11T12:16:52.793Z,17.40
2022-12-11T12:19:54.726Z,17.33
2022-12-11T12:22:41.575Z,17.35
2022-12-11T12:25:27.890Z,17.24
2022-12-11T12:27:59.545Z,17.33
2022-12-11T12:30:33.814Z,17.03
2022-12-11T12:33:58.210Z,16.86
2022-12-11T12:37:02.683Z,16.82
2022-12-11T12:39:36.195Z,16.84
2022-12-11T12:42:22.297Z,16.75
2022-12-11T12:45:00.929Z,16.74
2022-12-11T12:47:35.627Z,16.72
2022-12-11T12:50:12.805Z,16.59
2022-12-11T12:52:44.299Z,16.32
2022-12-11T12:55:20.278Z,16.39
2022-12-11T12:58:00.021Z,16.39
2022-12-11T13:00:34.257Z,16.44
2022-12-11T13:03:24.655Z,16.38
2022-12-11T13:06:04.638Z,16.44
2022-12-11T13:09:11.512Z,16.26
2022-12-11T13:11:42.534Z,16.10
2022-12-11T13:14:16.991Z,15.95
2022-12-11T13:16:50.203Z,15.86
2022-12-11T13:19:27.166Z,16.06
2022-12-11T13:22:24.146Z,16.04
2022-12-11T13:24:55.057Z,15.77
2022-12-11T13:27:32.164Z,15.74
2022-12-11T13:30:10.099Z,15.76
2022-12-11T13:32:41.349Z,15.78
2022-12-11T13:35:18.805Z,15.66
2022-12-11T13:37:52.818Z,15.50
2022-12-11T13:40:29.663Z,15.50
2022-12-11T13:43:04.410Z,15.21
2022-12-11T13:45:46.974Z,15.30
2022-12-11T13:48:30.735Z,15.51
2022-12-11T13:51:02.153Z,15.52
2022-12-11T13:53:33.056Z,15.51
2022-12-11T13:56:07.024Z,15.51
2022-12-11T13:58:41.244Z,15.29
2022-12-11T14:01:18.457Z,15.29
2022-12-11T14:04:13.068Z,15.30
2022-12-11T14:06:44.242Z,15.18
2022-12-11T14:09:22.641Z,15.25
2022-12-11T14:11:56.971Z,15.22
2022-12-11T14:14:31.799Z,15.10
2022-12-11T14:17:03.211Z,15.05
2022-12-11T14:19:33.961Z,15.09
2022-12-11T14:22:08.664Z,15.01
2022-12-11T14:24:39.922Z,14.97
2022-12-11T14:27:19.880Z,14.95
2022-12-11T14:29:51.514Z,14.93
2022-12-11T14:32:32.793Z,14.81
2022-12-11T14:35:07.049Z,14.75
2022-12-11T14:37:38.721Z,14.70
2022-12-11T14:40:18.871Z,14.87
2022-12-11T14:43:00.500Z,14.64
2022-12-11T14:45:41.759Z,14.71
2022-12-11T14:48:20.497Z,14.53
2022-12-11T14:50:56.228Z,14.59
2022-12-11T14:53:44.246Z,14.55
2022-12-11T14:56:23.632Z,14.62
2022-12-11T14:59:07.826Z,14.61
2022-12-11T15:01:40.777Z,14.37
2022-12-11T15:04:34.354Z,14.24
2022-12-11T15:07:05.487Z,14.19
2022-12-11T15:09:37.686Z,14.19
2022-12-11T15:12:20.303Z,14.26
2022-12-11T15:14:52.530Z,14.40
2022-12-11T15:17:24.294Z,14.30
2022-12-11T15:19:55.500Z,14.10
2022-12-11T15:22:29.808Z,13.98
2022-12-11T15:25:01.013Z,14.07
2022-12-11T15:27:39.798Z,14.05
2022-12-11T15:30:30.395Z,14.11
2022-12-11T15:33:13.806Z,13.84
2022-12-11T15:35:56.659Z,13.78
2022-12-11T15:38:43.520Z,13.90
2022-12-11T15:41:19.897Z,13.82
2022-12-11T15:43:55.302Z,13.76
2022-12-11T15:46:28.977Z,13.69
2022-12-11T15:49:00.003Z,13.60
2022-12-11T15:51:31.048Z,13.54
2022-12-11T15:54:01.848Z,13.46
2022-12-11T15:56:33.133Z,13.62
2022-12-11T15:59:05.970Z,13.34
2022-12-11T16:01:36.701Z,13.54
2022-12-11T16:04:07.764Z,13.38
2022-12-11T16:06:38.972Z,13.46
2022-12-11T16:09:09.763Z,13.30
2022-12-11T16:11:40.632Z,13.27
2022-12-11T16:14:11.723Z,13.23
2022-12-11T16:16:42.674Z,13.15
2022-12-11T16:19:13.365Z,13.18
2022-12-11T16:21:44.271Z,13.21
2022-12-11T16:24:15.000Z,13.07
2022-12-11T16:26:45.703Z,13.10
2022-12-11T16:29:16.681Z,13.04
2022-12-11T16:31:47.692Z,13.03
2022-12-11T16:34:19.183Z,12.80
2022-12-11T16:36:50.625Z,12.86
2022-12-11T16:39:21.552Z,12.82
2022-12-11T16:41:52.296Z,12.83
2022-12-11T16:44:25.399Z,12.86
2022-12-11T16:46:56.696Z,12.96
2022-12-11T16:49:27.985Z,12.95
2022-12-11T16:51:58.930Z,12.88
2022-12-11T16:54:29.765Z,12.85
2022-12-11T16:57:00.738Z,12.80
2022-12-11T16:59:36.800Z,12.71
2022-12-11T17:02:08.505Z,12.72
2022-12-11T17:04:43.360Z,12.70
2022-12-11T17:07:14.451Z,12.77
2022-12-11T17:09:45.268Z,12.97
2022-12-11T17:12:16.339Z,12.79
2022-12-11T17:14:47.588Z,12.85
2022-12-11T17:17:18.521Z,12.90
2022-12-11T17:19:49.728Z,12.89
2022-12-11T17:22:20.445Z,12.93
2022-12-11T17:24:51.566Z,12.98
2022-12-11T17:27:22.644Z,13.12
2022-12-11T17:29:53.591Z,13.13
2022-12-11T17:32:24.554Z,13.18
2022-12-11T17:34:55.732Z,13.37
2022-12-11T17:37:26.660Z,13.27
2022-12-11T17:39:57.420Z,13.48
2022-12-11T17:42:28.525Z,13.49
2022-12-11T17:44:59.260Z,13.58
2022-12-11T17:47:30.352Z,13.61
2022-12-11T17:50:01.569Z,13.69
2022-12-11T17:52:35.611Z,13.84
2022-12-11T17:55:09.032Z,13.90
2022-12-11T17:57:39.981Z,13.96
2022-12-11T18:00:11.726Z,13.99
2022-12-11T18:02:45.780Z,14.10
2022-12-11T18:05:16.765Z,14.18
2022-12-11T18:07:49.672Z,14.35
2022-12-11T18:10:22.903Z,14.43
2022-12-11T18:12:54.032Z,14.57
2022-12-11T18:15:26.672Z,14.69
2022-12-11T18:17:59.701Z,14.80
2022-12-11T18:20:30.533Z,14.89
2022-12-11T18:23:01.897Z,15.30
2022-12-11T18:25:33.003Z,15.55
2022-12-11T18:28:03.908Z,15.66
2022-12-11T18:30:34.925Z,15.78
2022-12-11T18:33:05.904Z,15.87
2022-12-11T18:35:37.408Z,15.86
2022-12-11T18:38:08.141Z,16.06
2022-12-11T18:40:40.352Z,16.37
2022-12-11T18:43:11.542Z,16.37
2022-12-11T18:45:48.708Z,16.51
2022-12-11T18:48:19.363Z,16.50
2022-12-11T18:50:51.549Z,16.62
2022-12-11T18:53:22.418Z,16.64
2022-12-11T18:55:58.599Z,17.14
2022-12-11T18:58:31.267Z,17.42
2022-12-11T19:01:07.203Z,17.39
2022-12-11T19:03:38.663Z,17.62
2022-12-11T19:06:11.276Z,17.82
2022-12-11T19:08:43.392Z,17.95
2022-12-11T19:11:24.194Z,18.12
2022-12-11T19:13:57.990Z,18.24
2022-12-11T19:16:37.418Z,18.47
2022-12-11T19:19:15.769Z,18.79
2022-12-11T19:21:47.311Z,18.79
2022-12-11T19:24:18.808Z,18.91
2022-12-11T19:26:49.935Z,19.02
2022-12-11T19:29:30.158Z,18.93
2022-12-11T19:32:01.832Z,19.31
2022-12-11T19:34:33.018Z,19.18
2022-12-11T19:37:04.610Z,19.41
2022-12-11T19:39:35.824Z,19.45
2022-12-11T19:42:07.112Z,19.67
2022-12-11T19:44:37.888Z,19.16
2022-12-11T19:47:09.084Z,19.43
2022-12-11T19:49:39.835Z,20.18
2022-12-11T19:52:10.736Z,20.46
2022-12-11T19:54:41.594Z,20.63
2022-12-11T19:57:12.843Z,20.33
2022-12-11T19:59:43.815Z,20.63
2022-12-11T20:02:14.924Z,21.00
2022-12-11T20:04:45.895Z,21.27
2022-12-11T20:07:16.646Z,20.58
2022-12-11T20:09:47.868Z,21.22
2022-12-11T20:12:19.197Z,21.21
2022-12-11T20:14:50.377Z,21.38
2022-12-11T20:17:21.275Z,21.68
2022-12-11T20:19:52.735Z,21.89
2022-12-11T20:22:23.880Z,21.89
2022-12-11T20:24:54.762Z,21.47
2022-12-11T20:27:27.575Z,21.86
2022-12-11T20:29:58.792Z,21.91
2022-12-11T20:32:29.858Z,21.83
2022-12-11T20:35:00.722Z,22.34
2022-12-11T20:37:32.920Z,22.65
2022-12-11T20:40:04.389Z,22.44
2022-12-11T20:42:34.861Z,22.84
2022-12-11T20:45:06.300Z,22.59
2022-12-11T20:47:36.608Z,22.36
2022-12-11T20:50:08.113Z,23.18
2022-12-11T20:52:39.484Z,22.78
2022-12-11T20:55:10.461Z,23.63
2022-12-11T20:57:45.052Z,23.45
2022-12-11T21:00:17.116Z,23.99
2022-12-11T21:02:48.028Z,24.03
2022-12-11T21:05:19.141Z,23.72
2022-12-11T21:07:49.958Z,24.20
2022-12-11T21:10:20.680Z,23.90
2022-12-11T21:12:51.667Z,23.57
2022-12-11T21:15:22.515Z,24.20
2022-12-11T21:17:53.404Z,23.55
2022-12-11T21:20:25.275Z,24.65
2022-12-11T21:22:58.920Z,24.08
2022-12-11T21:25:30.092Z,23.97
2022-12-11T21:28:01.122Z,24.39
2022-12-11T21:30:32.676Z,24.56
2022-12-11T21:33:05.021Z,24.65
2022-12-11T21:35:36.415Z,24.48
2022-12-11T21:38:08.082Z,24.17
2022-12-11T21:40:39.020Z,24.42
2022-12-11T21:43:09.939Z,24.86
2022-12-11T21:48:31.870Z,24.91
2022-12-11T21:51:16.955Z,25.23
2022-12-11T21:53:48.313Z,25.00
2022-12-11T21:56:21.882Z,24.62
2022-12-11T21:58:53.871Z,25.32
2022-12-11T22:01:38.963Z,26.09
2022-12-11T22:04:10.663Z,26.29
2022-12-11T22:06:43.676Z,25.87
2022-12-11T22:09:16.172Z,26.15
2022-12-11T22:11:48.047Z,25.98
2022-12-11T22:14:19.819Z,26.42
2022-12-11T22:16:50.599Z,27.09
2022-12-11T22:19:21.661Z,27.04
2022-12-11T22:21:52.878Z,26.30
2022-12-11T22:24:23.813Z,26.48
2022-12-11T22:26:57.155Z,27.00
2022-12-11T22:29:27.923Z,26.23
2022-12-11T22:31:58.823Z,26.14
2022-12-11T22:34:29.731Z,27.03
2022-12-11T22:37:01.135Z,27.79
2022-12-11T22:39:32.653Z,27.48
2022-12-11T22:42:03.222Z,27.23
2022-12-11T22:44:34.111Z,26.50
2022-12-11T22:47:04.759Z,26.15
2022-12-11T22:49:35.951Z,26.93
2022-12-11T22:52:06.942Z,26.17
2022-12-11T22:54:41.291Z,26.75
2022-12-11T22:57:12.364Z,27.08
2022-12-11T22:59:43.474Z,26.78
2022-12-11T23:02:13.968Z,27.01
2022-12-11T23:04:44.911Z,26.48
2022-12-11T23:07:15.660Z,26.35
2022-12-11T23:09:46.392Z,27.19
2022-12-11T23:12:17.166Z,26.18
2022-12-11T23:14:48.049Z,26.74
2022-12-11T23:17:19.202Z,26.49
2022-12-11T23:19:50.503Z,28.07
2022-12-11T23:22:20.922Z,28.95
2022-12-11T23:24:51.603Z,28.92
2022-12-11T23:27:22.926Z,28.76
2022-12-11T23:29:53.999Z,28.53
2022-12-11T23:32:24.650Z,27.28
2022-12-11T23:34:55.493Z,28.65
2022-12-11T23:37:26.679Z,28.47
2022-12-11T23:39:58.433Z,28.30
2022-12-11T23:42:29.639Z,28.13
2022-12-11T23:45:00.793Z,28.83
2022-12-11T23:47:32.942Z,28.65
2022-12-11T23:50:04.027Z,29.34
2022-12-11T23:52:34.910Z,28.45
2022-12-11T23:55:06.957Z,28.94
2022-12-11T23:57:38.536Z,29.87
